createdAt,value
2023-02-07T00:00:51.834Z,49.58
2023-02-07T00:03:18.561Z,49.85
2023-02-07T00:05:45.274Z,50.39
2023-02-07T00:08:11.897Z,49.92
2023-02-07T00:10:38.530Z,49.58
2023-02-07T00:13:06.383Z,49.70
2023-02-07T00:15:33.137Z,49.54
2023-02-07T00:17:59.762Z,49.84
2023-02-07T00:20:26.392Z,49.57
2023-02-07T00:22:53.026Z,49.36
2023-02-07T00:25:19.670Z,50.04
2023-02-07T00:27:46.508Z,50.26
2023-02-07T00:30:13.410Z,50.35
2023-02-07T00:32:40.070Z,50.77
2023-02-07T00:35:07.310Z,50.01
2023-02-07T00:37:33.963Z,49.67
2023-02-07T00:40:00.603Z,49.40
2023-02-07T00:42:27.244Z,49.51
2023-02-07T00:44:53.901Z,48.80
2023-02-07T00:47:20.551Z,49.31
2023-02-07T00:49:47.165Z,48.59
2023-02-07T00:52:13.830Z,49.64
2023-02-07T00:54:40.479Z,48.91
2023-02-07T00:57:07.136Z,49.20
2023-02-07T00:59:33.813Z,48.92
2023-02-07T01:02:00.465Z,49.08
2023-02-07T01:04:27.150Z,48.98
2023-02-07T01:06:53.808Z,48.52
2023-02-07T01:09:20.473Z,48.39
2023-02-07T01:11:47.102Z,49.00
2023-02-07T01:14:13.735Z,48.35
2023-02-07T01:16:40.358Z,48.13
2023-02-07T01:19:08.370Z,48.00
2023-02-07T01:21:35.069Z,47.99
2023-02-07T01:24:01.789Z,48.21
2023-02-07T01:26:28.449Z,48.03
2023-02-07T01:28:55.379Z,48.26
2023-02-07T01:31:22.228Z,48.89
2023-02-07T01:33:53.235Z,48.49
2023-02-07T01:36:19.877Z,48.41
2023-02-07T01:38:46.530Z,49.13
2023-02-07T01:41:13.437Z,48.83
2023-02-07T01:44:08.915Z,48.40
2023-02-07T01:46:35.743Z,48.98
2023-02-07T01:49:05.234Z,48.60
2023-02-07T01:51:31.860Z,47.85
2023-02-07T01:54:00.454Z,47.88
2023-02-07T01:56:32.050Z,47.95
2023-02-07T01:58:59.942Z,50.10
2023-02-07T02:01:26.664Z,49.56
2023-02-07T02:03:56.321Z,48.35
2023-02-07T02:06:24.002Z,48.66
2023-02-07T02:08:51.372Z,48.71
2023-02-07T02:11:43.718Z,49.25
2023-02-07T02:14:23.909Z,49.20
2023-02-07T02:17:21.797Z,48.95
2023-02-07T02:25:53.460Z,50.19
2023-02-07T02:28:54.736Z,48.88
2023-02-07T02:31:40.659Z,49.49
2023-02-07T02:34:11.078Z,49.23
2023-02-07T02:36:43.413Z,49.48
2023-02-07T02:39:31.454Z,49.28
2023-02-07T02:42:05.564Z,49.43
2023-02-07T02:44:41.856Z,49.66
2023-02-07T02:47:08.565Z,50.13
2023-02-07T02:49:35.180Z,49.66
2023-02-07T02:52:01.838Z,50.10
2023-02-07T02:54:32.182Z,49.91
2023-02-07T02:56:58.677Z,50.29
2023-02-07T02:59:32.311Z,51.62
2023-02-07T03:02:21.369Z,51.70
2023-02-07T03:05:02.455Z,51.77
2023-02-07T03:07:56.950Z,51.73
2023-02-07T03:10:30.678Z,52.15
2023-02-07T03:13:23.485Z,51.99
2023-02-07T03:16:09.938Z,52.57
2023-02-07T03:19:01.013Z,52.23
2023-02-07T03:21:48.421Z,52.66
2023-02-07T03:24:32.087Z,53.14
2023-02-07T03:27:00.351Z,52.74
2023-02-07T03:29:27.734Z,52.08
2023-02-07T03:31:55.812Z,52.69
2023-02-07T03:34:24.476Z,52.43
2023-02-07T03:37:17.059Z,52.00
2023-02-07T03:39:43.679Z,52.27
2023-02-07T03:42:16.001Z,53.15
2023-02-07T03:44:42.645Z,53.80
2023-02-07T03:47:09.276Z,53.84
2023-02-07T03:49:35.896Z,54.33
2023-02-07T03:52:02.557Z,54.56
2023-02-07T03:54:29.220Z,54.56
2023-02-07T03:56:55.875Z,55.37
2023-02-07T03:59:22.513Z,55.33
2023-02-07T04:01:49.295Z,55.13
2023-02-07T04:04:15.974Z,55.07
2023-02-07T04:06:42.715Z,56.12
2023-02-07T04:09:11.627Z,55.31
2023-02-07T04:11:38.545Z,56.53
2023-02-07T04:14:05.382Z,56.46
2023-02-07T04:16:32.059Z,56.07
2023-02-07T04:18:58.738Z,56.08
2023-02-07T04:21:25.419Z,55.61
2023-02-07T04:23:52.086Z,55.68
2023-02-07T04:26:18.722Z,56.11
2023-02-07T04:28:45.350Z,55.83
2023-02-07T04:31:12.083Z,55.99
2023-02-07T04:33:38.723Z,56.67
2023-02-07T04:36:05.824Z,56.13
2023-02-07T04:38:32.497Z,56.15
2023-02-07T04:40:59.973Z,56.60
2023-02-07T04:43:26.797Z,56.96
2023-02-07T04:45:53.524Z,56.66
2023-02-07T04:48:20.214Z,57.59
2023-02-07T04:50:46.878Z,56.88
2023-02-07T04:53:13.534Z,56.68
2023-02-07T04:55:40.352Z,57.80
2023-02-07T04:58:07.121Z,57.77
2023-02-07T05:00:33.793Z,57.90
2023-02-07T05:03:00.981Z,56.98
2023-02-07T05:05:27.680Z,57.53
2023-02-07T05:07:54.402Z,56.87
2023-02-07T05:10:21.043Z,57.73
2023-02-07T05:12:47.722Z,58.01
2023-02-07T05:15:14.373Z,58.55
2023-02-07T05:17:41.017Z,58.15
2023-02-07T05:20:08.179Z,57.40
2023-02-07T05:22:34.848Z,58.34
2023-02-07T05:25:01.474Z,58.31
2023-02-07T05:27:28.121Z,58.05
2023-02-07T05:29:54.746Z,58.32
2023-02-07T05:32:21.367Z,58.24
2023-02-07T05:34:48.007Z,58.33
2023-02-07T05:37:14.670Z,57.81
2023-02-07T05:39:41.351Z,58.31
2023-02-07T05:42:08.125Z,57.23
2023-02-07T05:44:35.980Z,57.61
2023-02-07T05:47:02.627Z,57.38
2023-02-07T05:49:29.272Z,57.69
2023-02-07T05:51:55.926Z,57.55
2023-02-07T05:54:22.710Z,58.55
2023-02-07T05:56:49.342Z,57.77
2023-02-07T05:59:16.094Z,57.63
2023-02-07T06:01:42.756Z,57.87
2023-02-07T06:04:09.412Z,58.15
2023-02-07T06:06:36.143Z,58.14
2023-02-07T06:09:02.776Z,58.48
2023-02-07T06:11:29.407Z,58.62
2023-02-07T06:13:56.065Z,57.92
2023-02-07T06:16:22.716Z,58.19
2023-02-07T06:18:49.505Z,57.91
2023-02-07T06:21:16.165Z,57.95
2023-02-07T06:23:42.804Z,58.33
2023-02-07T06:26:09.443Z,58.70
2023-02-07T06:28:36.108Z,58.30
2023-02-07T06:31:02.812Z,57.83
2023-02-07T06:33:29.507Z,58.13
2023-02-07T06:35:56.175Z,57.90
2023-02-07T06:38:22.861Z,58.58
2023-02-07T06:40:49.501Z,57.93
2023-02-07T06:43:16.140Z,58.13
2023-02-07T06:45:42.838Z,57.89
2023-02-07T06:48:09.534Z,58.40
2023-02-07T06:50:36.418Z,58.57
2023-02-07T06:53:03.343Z,58.31
2023-02-07T06:55:35.537Z,58.85
2023-02-07T06:58:02.167Z,57.96
2023-02-07T07:00:28.784Z,58.37
2023-02-07T07:02:55.467Z,58.26
2023-02-07T07:05:22.230Z,58.16
2023-02-07T07:07:48.878Z,57.96
2023-02-07T07:10:15.593Z,58.28
2023-02-07T07:12:42.282Z,58.45
2023-02-07T07:15:09.190Z,58.24
2023-02-07T07:17:35.841Z,58.14
2023-02-07T07:20:02.529Z,57.79
2023-02-07T07:22:29.176Z,57.14
2023-02-07T07:24:56.184Z,56.53
2023-02-07T07:27:22.898Z,56.90
2023-02-07T07:29:49.550Z,56.77
2023-02-07T07:32:32.107Z,56.47
2023-02-07T07:35:00.233Z,56.32
2023-02-07T07:37:26.902Z,56.35
2023-02-07T07:39:53.606Z,56.46
2023-02-07T07:42:20.271Z,55.93
2023-02-07T07:44:46.997Z,55.82
2023-02-07T07:47:13.663Z,54.85
2023-02-07T07:49:40.556Z,55.05
2023-02-07T07:52:07.397Z,54.96
2023-02-07T07:54:34.049Z,54.22
2023-02-07T07:57:00.757Z,53.23
2023-02-07T07:59:27.455Z,53.05
2023-02-07T08:01:54.169Z,52.00
2023-02-07T08:04:20.829Z,49.01
2023-02-07T08:06:47.496Z,44.45
2023-02-07T08:09:14.158Z,41.75
2023-02-07T08:11:40.811Z,39.05
2023-02-07T08:14:07.729Z,33.65
2023-02-07T08:16:34.387Z,30.75
2023-02-07T08:19:01.026Z,29.54
2023-02-07T08:21:27.684Z,28.82
2023-02-07T08:23:57.420Z,28.36
2023-02-07T08:26:24.045Z,27.83
2023-02-07T08:28:50.674Z,26.72
2023-02-07T08:31:17.507Z,26.40
2023-02-07T08:33:44.360Z,26.36
2023-02-07T08:36:11.495Z,25.64
2023-02-07T08:38:38.273Z,23.92
2023-02-07T08:41:05.268Z,22.48
2023-02-07T08:43:32.002Z,21.60
2023-02-07T08:45:58.731Z,21.12
2023-02-07T08:48:25.438Z,20.18
2023-02-07T08:50:52.108Z,19.15
2023-02-07T08:53:18.770Z,19.90
2023-02-07T08:55:45.547Z,19.80
2023-02-07T08:58:12.183Z,19.51
2023-02-07T09:00:39.689Z,18.76
2023-02-07T09:03:06.492Z,18.48
2023-02-07T09:05:33.166Z,17.88
2023-02-07T09:08:00.770Z,18.65
2023-02-07T09:10:27.422Z,17.62
2023-02-07T09:12:54.075Z,17.20
2023-02-07T09:15:20.752Z,16.41
2023-02-07T09:17:47.470Z,17.16
2023-02-07T09:20:14.145Z,16.66
2023-02-07T09:22:40.803Z,16.08
2023-02-07T09:25:07.578Z,16.31
2023-02-07T09:27:34.202Z,17.46
2023-02-07T09:30:00.862Z,17.36
2023-02-07T09:34:53.975Z,17.10
2023-02-07T09:37:20.641Z,17.43
2023-02-07T09:39:47.303Z,17.88
2023-02-07T09:42:22.403Z,17.77
2023-02-07T09:44:59.405Z,17.92
2023-02-07T09:47:26.346Z,18.07
2023-02-07T09:49:57.519Z,18.71
2023-02-07T09:52:31.340Z,20.24
2023-02-07T09:54:58.255Z,20.96
2023-02-07T09:57:36.786Z,22.79
2023-02-07T10:00:08.060Z,24.96
2023-02-07T10:02:38.620Z,25.58
2023-02-07T10:05:16.448Z,26.77
2023-02-07T10:07:46.442Z,28.33
2023-02-07T10:10:41.295Z,30.15
2023-02-07T10:13:32.778Z,32.03
2023-02-07T10:16:13.221Z,33.31
2023-02-07T10:18:48.741Z,33.78
2023-02-07T10:21:54.762Z,34.66
2023-02-07T10:24:27.520Z,36.07
2023-02-07T10:26:57.313Z,36.66
2023-02-07T10:29:36.018Z,36.10
2023-02-07T10:32:08.333Z,38.55
2023-02-07T10:34:35.818Z,38.87
2023-02-07T10:37:06.179Z,38.94
2023-02-07T10:39:37.718Z,39.77
2023-02-07T10:42:04.403Z,39.48
2023-02-07T10:44:31.085Z,40.59
2023-02-07T10:47:01.047Z,40.82
2023-02-07T10:49:29.439Z,40.11
2023-02-07T10:51:57.780Z,41.03
2023-02-07T10:54:24.479Z,41.33
2023-02-07T10:56:54.642Z,41.39
2023-02-07T10:59:42.192Z,41.63
2023-02-07T11:02:28.759Z,42.21
2023-02-07T11:04:56.196Z,41.53
2023-02-07T11:07:22.907Z,42.03
2023-02-07T11:09:49.631Z,42.46
2023-02-07T11:12:24.056Z,42.27
2023-02-07T11:15:06.157Z,43.42
2023-02-07T11:17:32.929Z,42.87
2023-02-07T11:20:05.595Z,42.85
2023-02-07T11:22:32.227Z,42.79
2023-02-07T11:25:05.461Z,42.34
2023-02-07T11:27:39.732Z,42.66
2023-02-07T11:30:17.720Z,44.29
2023-02-07T11:32:44.369Z,43.68
2023-02-07T11:35:20.574Z,43.50
2023-02-07T11:37:48.754Z,43.54
2023-02-07T11:40:25.264Z,43.30
2023-02-07T11:42:59.107Z,44.17
2023-02-07T11:45:26.085Z,44.49
2023-02-07T11:47:55.942Z,45.25
2023-02-07T11:50:27.320Z,45.77
2023-02-07T11:52:55.849Z,45.69
2023-02-07T11:55:25.772Z,45.97
2023-02-07T11:57:55.183Z,45.52
2023-02-07T12:00:26.412Z,45.40
2023-02-07T12:03:02.465Z,44.94
2023-02-07T12:05:43.091Z,45.29
2023-02-07T12:08:12.888Z,45.69
2023-02-07T12:10:39.941Z,45.86
2023-02-07T12:13:30.472Z,45.54
2023-02-07T12:16:34.290Z,45.52
2023-02-07T12:19:32.211Z,45.96
2023-02-07T12:22:17.727Z,46.32
2023-02-07T12:24:54.255Z,46.41
2023-02-07T12:27:20.927Z,46.21
2023-02-07T12:30:08.953Z,46.85
2023-02-07T12:33:02.356Z,46.58
2023-02-07T12:35:57.001Z,46.84
2023-02-07T12:38:25.232Z,46.84
2023-02-07T12:40:55.327Z,46.33
2023-02-07T12:43:27.039Z,47.12
2023-02-07T12:46:02.833Z,46.42
2023-02-07T12:49:03.102Z,46.18
2023-02-07T12:51:42.912Z,46.82
2023-02-07T12:54:39.980Z,46.78
2023-02-07T12:57:18.977Z,47.28
2023-02-07T13:00:02.167Z,46.34
2023-02-07T13:02:40.840Z,46.79
2023-02-07T13:05:07.439Z,46.75
2023-02-07T13:07:45.763Z,46.69
2023-02-07T13:10:18.208Z,47.17
2023-02-07T13:12:57.368Z,47.77
2023-02-07T13:15:52.383Z,46.58
2023-02-07T13:18:21.808Z,46.72
2023-02-07T13:21:07.057Z,47.31
2023-02-07T13:23:35.918Z,48.08
2023-02-07T13:26:09.107Z,46.46
2023-02-07T13:28:56.994Z,47.09
2023-02-07T13:31:41.534Z,47.13
2023-02-07T13:34:16.991Z,46.33
2023-02-07T13:36:47.748Z,46.37
2023-02-07T13:39:26.252Z,46.49
2023-02-07T13:42:01.953Z,46.49
2023-02-07T13:44:34.717Z,46.86
2023-02-07T13:47:52.472Z,47.12
2023-02-07T13:50:37.376Z,46.73
2023-02-07T13:53:22.630Z,46.61
2023-02-07T13:55:49.296Z,47.06
2023-02-07T13:58:51.111Z,47.34
2023-02-07T14:01:24.597Z,47.25
2023-02-07T14:04:05.611Z,46.63
2023-02-07T14:06:36.412Z,46.78
2023-02-07T14:09:15.320Z,46.88
2023-02-07T14:11:46.623Z,47.34
2023-02-07T14:14:29.548Z,46.90
2023-02-07T14:17:00.973Z,47.02
2023-02-07T14:19:39.714Z,46.65
2023-02-07T14:22:28.645Z,46.80
2023-02-07T14:24:58.178Z,47.24
2023-02-07T14:27:31.686Z,47.05
2023-02-07T14:30:17.074Z,47.11
2023-02-07T14:33:11.654Z,46.92
2023-02-07T14:35:45.017Z,46.91
2023-02-07T14:38:22.275Z,46.39
2023-02-07T14:40:54.374Z,46.70
2023-02-07T14:44:08.120Z,47.33
2023-02-07T14:46:42.794Z,45.91
2023-02-07T14:49:31.792Z,46.05
2023-02-07T14:52:22.601Z,45.62
2023-02-07T14:55:12.804Z,45.68
2023-02-07T14:57:50.943Z,46.65
2023-02-07T15:00:17.512Z,46.18
2023-02-07T15:02:49.792Z,45.52
2023-02-07T15:05:19.087Z,45.60
2023-02-07T15:07:46.195Z,45.42
2023-02-07T15:10:23.530Z,45.30
2023-02-07T15:12:51.116Z,45.12
2023-02-07T15:15:28.974Z,45.65
2023-02-07T15:17:57.941Z,45.71
2023-02-07T15:20:29.833Z,46.03
2023-02-07T15:22:56.494Z,45.46
2023-02-07T15:25:23.262Z,44.97
2023-02-07T15:28:02.166Z,44.58
2023-02-07T15:30:28.974Z,45.31
2023-02-07T15:32:55.892Z,44.74
2023-02-07T15:35:26.406Z,45.60
2023-02-07T15:37:53.162Z,45.34
2023-02-07T15:40:22.411Z,46.27
2023-02-07T15:42:53.469Z,46.25
2023-02-07T15:45:27.429Z,45.89
2023-02-07T15:47:58.716Z,46.86
2023-02-07T15:50:26.049Z,47.12
2023-02-07T15:52:54.129Z,46.34
2023-02-07T15:55:37.917Z,46.25
2023-02-07T15:58:05.178Z,47.26
2023-02-07T16:00:36.176Z,47.45
2023-02-07T16:03:07.936Z,47.76
2023-02-07T16:05:38.236Z,48.03
2023-02-07T16:08:27.972Z,48.08
2023-02-07T16:10:54.828Z,47.82
2023-02-07T16:13:21.981Z,46.95
2023-02-07T16:15:58.957Z,47.22
2023-02-07T16:18:44.133Z,47.42
2023-02-07T16:21:13.627Z,48.09
2023-02-07T16:23:40.309Z,48.05
2023-02-07T16:26:06.986Z,47.52
2023-02-07T16:28:33.735Z,46.95
2023-02-07T16:31:00.453Z,47.88
2023-02-07T16:33:27.166Z,47.94
2023-02-07T16:35:53.835Z,48.49
2023-02-07T16:38:20.591Z,48.20
2023-02-07T16:40:47.707Z,49.59
2023-02-07T16:43:43.634Z,49.72
2023-02-07T16:46:10.309Z,48.94
2023-02-07T16:48:36.996Z,47.54
2023-02-07T16:51:03.953Z,47.44
2023-02-07T16:53:30.672Z,46.90
2023-02-07T16:55:57.308Z,46.63
2023-02-07T16:58:31.079Z,48.36
2023-02-07T17:00:57.782Z,48.23
2023-02-07T17:03:24.584Z,47.29
2023-02-07T17:05:51.234Z,47.23
2023-02-07T17:08:19.773Z,47.68
2023-02-07T17:10:48.854Z,48.24
2023-02-07T17:13:15.503Z,48.29
2023-02-07T17:15:42.169Z,48.96
2023-02-07T17:18:10.419Z,48.55
2023-02-07T17:20:37.230Z,47.92
2023-02-07T17:23:04.048Z,48.32
2023-02-07T17:25:30.797Z,47.68
2023-02-07T17:27:57.726Z,48.41
2023-02-07T17:30:45.727Z,48.25
2023-02-07T17:33:12.387Z,49.13
2023-02-07T17:35:39.074Z,48.63
2023-02-07T17:38:05.891Z,49.05
2023-02-07T17:40:34.472Z,49.19
2023-02-07T17:43:01.127Z,49.68
2023-02-07T17:45:28.266Z,48.85
2023-02-07T17:47:54.965Z,48.91
2023-02-07T17:50:27.095Z,49.02
2023-02-07T17:52:53.756Z,49.49
2023-02-07T17:55:20.399Z,49.66
2023-02-07T17:57:47.042Z,48.92
2023-02-07T18:00:17.973Z,49.29
2023-02-07T18:02:47.331Z,49.45
2023-02-07T18:05:14.414Z,49.51
2023-02-07T18:07:41.066Z,49.22
2023-02-07T18:10:07.937Z,49.24
2023-02-07T18:12:34.693Z,49.46
2023-02-07T18:15:01.330Z,50.03
2023-02-07T18:17:27.973Z,49.67
2023-02-07T18:19:54.634Z,50.29
2023-02-07T18:22:21.290Z,50.13
2023-02-07T18:24:47.944Z,49.70
2023-02-07T18:27:14.582Z,49.16
2023-02-07T18:29:41.266Z,49.12
2023-02-07T18:32:07.974Z,49.87
2023-02-07T18:34:34.628Z,49.93
2023-02-07T18:37:01.291Z,50.08
2023-02-07T18:39:27.906Z,50.45
2023-02-07T18:41:54.548Z,50.46
2023-02-07T18:44:21.183Z,49.97
2023-02-07T18:46:47.801Z,50.60
2023-02-07T18:49:14.439Z,50.24
2023-02-07T18:51:41.105Z,50.47
2023-02-07T18:54:07.746Z,50.00
2023-02-07T18:56:34.415Z,50.30
2023-02-07T18:59:01.388Z,50.18
2023-02-07T19:01:28.562Z,50.63
2023-02-07T19:03:55.212Z,50.49
2023-02-07T19:06:27.248Z,50.27
2023-02-07T19:08:53.911Z,50.09
2023-02-07T19:11:20.581Z,49.78
2023-02-07T19:13:47.394Z,50.84
2023-02-07T19:16:18.832Z,50.52
2023-02-07T19:18:45.502Z,50.01
2023-02-07T19:21:22.214Z,50.46
2023-02-07T19:23:48.868Z,50.69
2023-02-07T19:26:15.642Z,50.62
2023-02-07T19:28:42.272Z,50.83
2023-02-07T19:31:10.915Z,50.54
2023-02-07T19:33:37.663Z,51.19
2023-02-07T19:36:08.916Z,51.71
2023-02-07T19:38:35.834Z,51.86
2023-02-07T19:41:05.375Z,51.47
2023-02-07T19:43:32.051Z,52.41
2023-02-07T19:45:58.674Z,52.24
2023-02-07T19:48:25.380Z,52.25
2023-02-07T19:50:59.465Z,51.46
2023-02-07T19:53:26.671Z,51.96
2023-02-07T19:55:53.328Z,51.79
2023-02-07T19:58:19.963Z,52.01
2023-02-07T20:00:46.629Z,52.58
2023-02-07T20:03:13.277Z,52.64
2023-02-07T20:05:44.037Z,52.16
2023-02-07T20:08:10.689Z,51.18
2023-02-07T20:10:41.677Z,50.44
2023-02-07T20:13:08.428Z,50.40
2023-02-07T20:15:35.163Z,50.71
2023-02-07T20:18:01.819Z,50.38
2023-02-07T20:20:28.441Z,50.25
2023-02-07T20:22:55.564Z,50.63
2023-02-07T20:25:22.305Z,50.45
2023-02-07T20:27:49.028Z,50.43
2023-02-07T20:30:15.850Z,51.02
2023-02-07T20:32:42.551Z,51.88
2023-02-07T20:35:09.173Z,51.49
2023-02-07T20:37:35.834Z,51.53
2023-02-07T20:40:02.490Z,51.66
2023-02-07T20:42:29.204Z,51.39
2023-02-07T20:44:55.837Z,52.14
2023-02-07T20:47:22.723Z,52.16
2023-02-07T20:49:49.388Z,52.31
2023-02-07T20:52:16.729Z,52.75
2023-02-07T20:54:43.381Z,53.79
2023-02-07T20:57:10.038Z,54.54
2023-02-07T20:59:36.720Z,54.19
2023-02-07T21:02:03.453Z,54.29
2023-02-07T21:04:30.137Z,54.06
2023-02-07T21:06:56.767Z,54.26
2023-02-07T21:09:23.474Z,55.13
2023-02-07T21:11:51.166Z,54.50
2023-02-07T21:14:19.954Z,54.96
2023-02-07T21:16:46.670Z,54.40
2023-02-07T21:19:13.419Z,55.14
2023-02-07T21:21:40.100Z,55.15
2023-02-07T21:24:07.191Z,54.38
2023-02-07T21:26:33.863Z,55.09
2023-02-07T21:29:01.768Z,55.67
2023-02-07T21:31:28.765Z,55.81
2023-02-07T21:33:55.591Z,56.19
2023-02-07T21:36:27.499Z,55.74
2023-02-07T21:38:54.497Z,56.08
2023-02-07T21:41:25.630Z,56.68
2023-02-07T21:43:53.978Z,56.25
2023-02-07T21:46:22.576Z,56.29
2023-02-07T21:48:50.416Z,56.68
2023-02-07T21:51:18.935Z,56.68
2023-02-07T21:53:45.566Z,56.35
2023-02-07T21:56:14.394Z,56.65
2023-02-07T21:58:41.398Z,56.72
2023-02-07T22:01:16.439Z,56.81
2023-02-07T22:03:44.221Z,55.83
2023-02-07T22:06:11.141Z,56.02
2023-02-07T22:08:38.023Z,56.27
2023-02-07T22:11:05.566Z,56.66
2023-02-07T22:13:32.574Z,56.56
2023-02-07T22:15:59.205Z,56.45
2023-02-07T22:18:25.859Z,55.78
2023-02-07T22:20:52.485Z,55.97
2023-02-07T22:23:19.157Z,55.15
2023-02-07T22:25:45.784Z,55.71
2023-02-07T22:28:12.458Z,55.70
2023-02-07T22:30:41.066Z,55.77
2023-02-07T22:33:08.418Z,55.18
2023-02-07T22:35:38.314Z,55.12
2023-02-07T22:38:04.947Z,55.34
2023-02-07T22:40:33.026Z,54.53
2023-02-07T22:42:59.697Z,54.61
2023-02-07T22:45:26.349Z,54.88
2023-02-07T22:47:52.977Z,54.08
2023-02-07T22:50:19.639Z,53.75
2023-02-07T22:52:46.286Z,53.98
2023-02-07T22:55:12.934Z,53.69
2023-02-07T22:57:39.559Z,53.96
2023-02-07T23:00:07.618Z,54.25
2023-02-07T23:02:34.302Z,54.31
2023-02-07T23:05:00.987Z,54.38
2023-02-07T23:07:27.679Z,53.63
2023-02-07T23:09:54.562Z,54.14
2023-02-07T23:12:21.328Z,54.03
2023-02-07T23:14:47.949Z,54.18
2023-02-07T23:17:14.591Z,54.18
2023-02-07T23:19:41.240Z,54.52
2023-02-07T23:22:07.922Z,54.55
2023-02-07T23:24:34.565Z,54.63
2023-02-07T23:27:01.220Z,54.88
2023-02-07T23:29:27.848Z,55.19
2023-02-07T23:31:54.524Z,54.83
2023-02-07T23:34:21.218Z,53.93
2023-02-07T23:36:47.874Z,54.44
2023-02-07T23:39:14.598Z,54.21
2023-02-07T23:41:41.231Z,54.77
2023-02-07T23:44:07.856Z,54.92
2023-02-07T23:46:34.603Z,54.92
2023-02-07T23:49:01.258Z,55.20
2023-02-07T23:51:28.004Z,56.04
2023-02-07T23:53:54.673Z,56.41
2023-02-07T23:56:21.848Z,56.32
2023-02-07T23:58:48.650Z,56.08
